Home > Products > Valid Products > TAF

000
FTUS44 KHGX 010527
TAFUTS
TAF
KUTS 010527Z 0106/0206 16004KT P6SM BKN100
     FM010900 VRB03KT 6SM BR BKN015
     FM011400 17007KT P6SM SCT025 SCT250
     FM020300 16006KT P6SM SCT100=



000
FTUS44 KHGX 010527
TAFUTS
TAF
KUTS 010527Z 0106/0206 16004KT P6SM BKN100
     FM010900 VRB03KT 6SM BR BKN015
     FM011400 17007KT P6SM SCT025 SCT250
     FM020300 16006KT P6SM SCT100=



000
FTUS44 KHGX 010527
TAFCXO
TAF
KCXO 010527Z 0106/0206 12003KT P6SM BKN110
     FM010900 VRB03KT 3SM BR BKN008
     FM011500 16007KT P6SM BKN025
     FM011800 17008KT P6SM BKN050
     FM020300 16006KT P6SM SCT100=



000
FTUS44 KHGX 010527
TAFCLL
TAF
KCLL 010527Z 0106/0206 16003KT P6SM SKC
     FM010900 VRB03KT 6SM BR FEW007 BKN015
     FM011400 17007KT P6SM SCT025 SCT250
     FM020300 16006KT P6SM SCT100=



000
FTUS44 KHGX 010527
TAFCXO
TAF
KCXO 010527Z 0106/0206 12003KT P6SM BKN110
     FM010900 VRB03KT 3SM BR BKN008
     FM011500 16007KT P6SM BKN025
     FM011800 17008KT P6SM BKN050
     FM020300 16006KT P6SM SCT100=



000
FTUS44 KHGX 010527
TAFHOU
TAF
KHOU 010527Z 0106/0206 13003KT P6SM FEW020 SCT250
     FM010900 VRB03KT P6SM BKN025
      TEMPO 0110/0112 5SM BR BKN015
     FM011600 16008KT P6SM SCT030 SCT250
     FM012000 15009KT P6SM VCSH BKN050
     FM020300 16006KT P6SM SCT100=



000
FTUS44 KHGX 010527
TAFCLL
TAF
KCLL 010527Z 0106/0206 16003KT P6SM SKC
     FM010900 VRB03KT 6SM BR FEW007 BKN015
     FM011400 17007KT P6SM SCT025 SCT250
     FM020300 16006KT P6SM SCT100=



000
FTUS44 KHGX 010527
TAFGLS
TAF
KGLS 010527Z 0106/0206 13008KT P6SM FEW015
      TEMPO 0109/0112 BKN015
     FM011300 17010KT P6SM SCT025 SCT250
     FM011800 15009KT P6SM SCT250=



000
FTUS44 KHGX 010527
TAFIAH
TAF
KIAH 010527Z 0106/0212 12005KT P6SM SCT100 BKN250
     FM010800 15004KT P6SM SCT012 SCT250
      TEMPO 0109/0111 5SM BR BKN012
     FM011700 16008KT P6SM SCT030 SCT250
     FM012000 15009KT P6SM VCSH BKN050
     FM020300 16006KT P6SM SCT100=



000
FTUS44 KHGX 010527
TAFLBX
TAF
KLBX 010527Z 0106/0206 12004KT P6SM SKC
     FM010900 VRB03KT 4SM BR BKN008
     FM011500 18007KT P6SM SCT025 SCT250
     FM011900 15009KT P6SM VCSH BKN050
     FM020300 16006KT P6SM SCT100=



000
FTUS44 KHGX 010527
TAFSGR
TAF
KSGR 010527Z 0106/0206 VRB02KT P6SM FEW012 BKN100
     FM011000 19003KT 4SM BR OVC015
     FM011500 16008KT P6SM SCT030 SCT250
     FM011900 15009KT P6SM VCSH BKN050
     FM020300 16006KT P6SM SCT100=



000
FTUS44 KHGX 010527
TAFHOU
TAF
KHOU 010527Z 0106/0206 13003KT P6SM FEW020 SCT250
     FM010900 VRB03KT P6SM BKN025
      TEMPO 0110/0112 5SM BR BKN015
     FM011600 16008KT P6SM SCT030 SCT250
     FM012000 15009KT P6SM VCSH BKN050
     FM020300 16006KT P6SM SCT100=



000
FTUS44 KHGX 010527
TAFSGR
TAF
KSGR 010527Z 0106/0206 VRB02KT P6SM FEW012 BKN100
     FM011000 19003KT 4SM BR OVC015
     FM011500 16008KT P6SM SCT030 SCT250
     FM011900 15009KT P6SM VCSH BKN050
     FM020300 16006KT P6SM SCT100=



000
FTUS44 KHGX 010527
TAFIAH
TAF
KIAH 010527Z 0106/0212 12005KT P6SM SCT100 BKN250
     FM010800 15004KT P6SM SCT012 SCT250
      TEMPO 0109/0111 5SM BR BKN012
     FM011700 16008KT P6SM SCT030 SCT250
     FM012000 15009KT P6SM VCSH BKN050
     FM020300 16006KT P6SM SCT100=



000
FTUS44 KHGX 010527
TAFGLS
TAF
KGLS 010527Z 0106/0206 13008KT P6SM FEW015
      TEMPO 0109/0112 BKN015
     FM011300 17010KT P6SM SCT025 SCT250
     FM011800 15009KT P6SM SCT250=



000
FTUS44 KHGX 010527
TAFLBX
TAF
KLBX 010527Z 0106/0206 12004KT P6SM SKC
     FM010900 VRB03KT 4SM BR BKN008
     FM011500 18007KT P6SM SCT025 SCT250
     FM011900 15009KT P6SM VCSH BKN050
     FM020300 16006KT P6SM SCT100=



000
FTUS44 KHGX 010339 AAA
TAFIAH
TAF AMD
KIAH 010339Z 0104/0206 14007KT P6SM FEW025 BKN110 BKN250
     FM010700 15004KT P6SM SCT012 SCT250
      TEMPO 0108/0110 5SM BR BKN012
     FM011700 16008KT P6SM SCT030 SCT250
     FM012000 15009KT P6SM VCSH BKN050
     FM020300 16006KT P6SM SCT100=



000
FTUS44 KHGX 010339 AAA
TAFHOU
TAF AMD
KHOU 010339Z 0104/0124 12003KT P6SM FEW020 BKN110 BKN250
     FM010700 15007KT P6SM SCT015 SCT250
     FM010900 VRB03KT P6SM BKN025
      TEMPO 0110/0112 5SM BR BKN015
     FM011600 16008KT P6SM SCT030 SCT250
     FM012000 15009KT P6SM VCSH BKN050=



000
FTUS44 KHGX 010339 AAA
TAFIAH
TAF AMD
KIAH 010339Z 0104/0206 14007KT P6SM FEW025 BKN110 BKN250
     FM010700 15004KT P6SM SCT012 SCT250
      TEMPO 0108/0110 5SM BR BKN012
     FM011700 16008KT P6SM SCT030 SCT250
     FM012000 15009KT P6SM VCSH BKN050
     FM020300 16006KT P6SM SCT100=



000
FTUS44 KHGX 010339 AAA
TAFHOU
TAF AMD
KHOU 010339Z 0104/0124 12003KT P6SM FEW020 BKN110 BKN250
     FM010700 15007KT P6SM SCT015 SCT250
     FM010900 VRB03KT P6SM BKN025
      TEMPO 0110/0112 5SM BR BKN015
     FM011600 16008KT P6SM SCT030 SCT250
     FM012000 15009KT P6SM VCSH BKN050=



000
FTUS44 KHGX 302333
TAFGLS
TAF
KGLS 302333Z 0100/0124 10010KT P6SM FEW035 SCT070
     FM010600 14012KT P6SM FEW007 SCT015 SCT250
      TEMPO 0109/0112 BKN015
     FM011300 17010KT P6SM SCT025 SCT250
     FM011800 15009KT P6SM SCT250=



000
FTUS44 KHGX 302333
TAFLBX
TAF
KLBX 302333Z 0100/0124 VRB06KT P6SM FEW050 BKN060
     FM010300 15004KT P6SM SCT012 SCT250
     FM010600 18003KT 4SM BR OVC015
     FM010900 VRB03KT 2SM BR OVC008
     FM011500 18007KT P6SM SCT025 SCT250
     FM011900 15009KT P6SM VCSH BKN050=



000
FTUS44 KHGX 302333
TAFUTS
TAF
KUTS 302333Z 0100/0124 00000KT P6SM FEW045 FEW100
     FM010200 12006KT P6SM FEW020 SCT040
     FM010900 VRB03KT 6SM BR BKN015
     FM011400 17007KT P6SM SCT025 SCT250=



000
FTUS44 KHGX 302333
TAFHOU
TAF
KHOU 302333Z 0100/0124 14006KT P6SM SCT050 BKN070
     FM010700 15007KT P6SM SCT015 SCT250
     FM010900 VRB03KT P6SM BKN025
      TEMPO 0110/0112 5SM BR BKN015
     FM011600 16008KT P6SM SCT030 SCT250
     FM012000 15009KT P6SM VCSH BKN050=



000
FTUS44 KHGX 302333
TAFCLL
TAF
KCLL 302333Z 0100/0124 11006KT P6SM SKC
     FM010200 12006KT P6SM FEW020 SCT040
     FM010900 VRB03KT 6SM BR FEW007 BKN015
     FM011400 17007KT P6SM SCT025 SCT250=



000
FTUS44 KHGX 302333
TAFSGR
TAF
KSGR 302333Z 0100/0124 12007KT P6SM BKN070 OVC090
     FM010300 15004KT P6SM SCT012 SCT250
     FM010600 17004KT 6SM BR BKN025
     FM011000 19003KT 4SM BR OVC015
     FM011500 16008KT P6SM SCT030 SCT250
     FM011900 15009KT P6SM VCSH BKN050=



000
FTUS44 KHGX 302333
TAFIAH
TAF
KIAH 302333Z 0100/0206 16009KT P6SM SCT050 BKN100
     FM010700 15004KT P6SM SCT012 SCT250
      TEMPO 0108/0110 5SM BR BKN012
     FM011700 16008KT P6SM SCT030 SCT250
     FM012000 15009KT P6SM VCSH BKN050
     FM020300 16006KT P6SM SCT100=



000
FTUS44 KHGX 302333
TAFCXO
TAF
KCXO 302333Z 0100/0124 12005KT P6SM OVC100
     FM010600 15004KT 6SM BR BKN015
     FM010900 VRB03KT 3SM BR BKN008
     FM011500 16007KT P6SM BKN025
     FM011800 17008KT P6SM BKN050=



000
FTUS44 KHGX 302333
TAFLBX
TAF
KLBX 302333Z 0100/0124 VRB06KT P6SM FEW050 BKN060
     FM010300 15004KT P6SM SCT012 SCT250
     FM010600 18003KT 4SM BR OVC015
     FM010900 VRB03KT 2SM BR OVC008
     FM011500 18007KT P6SM SCT025 SCT250
     FM011900 15009KT P6SM VCSH BKN050=



000
FTUS44 KHGX 302333
TAFSGR
TAF
KSGR 302333Z 0100/0124 12007KT P6SM BKN070 OVC090
     FM010300 15004KT P6SM SCT012 SCT250
     FM010600 17004KT 6SM BR BKN025
     FM011000 19003KT 4SM BR OVC015
     FM011500 16008KT P6SM SCT030 SCT250
     FM011900 15009KT P6SM VCSH BKN050=



000
FTUS44 KHGX 302333
TAFIAH
TAF
KIAH 302333Z 0100/0206 16009KT P6SM SCT050 BKN100
     FM010700 15004KT P6SM SCT012 SCT250
      TEMPO 0108/0110 5SM BR BKN012
     FM011700 16008KT P6SM SCT030 SCT250
     FM012000 15009KT P6SM VCSH BKN050
     FM020300 16006KT P6SM SCT100=



000
FTUS44 KHGX 302333
TAFGLS
TAF
KGLS 302333Z 0100/0124 10010KT P6SM FEW035 SCT070
     FM010600 14012KT P6SM FEW007 SCT015 SCT250
      TEMPO 0109/0112 BKN015
     FM011300 17010KT P6SM SCT025 SCT250
     FM011800 15009KT P6SM SCT250=



000
FTUS44 KHGX 302333
TAFHOU
TAF
KHOU 302333Z 0100/0124 14006KT P6SM SCT050 BKN070
     FM010700 15007KT P6SM SCT015 SCT250
     FM010900 VRB03KT P6SM BKN025
      TEMPO 0110/0112 5SM BR BKN015
     FM011600 16008KT P6SM SCT030 SCT250
     FM012000 15009KT P6SM VCSH BKN050=



000
FTUS44 KHGX 302333
TAFUTS
TAF
KUTS 302333Z 0100/0124 00000KT P6SM FEW045 FEW100
     FM010200 12006KT P6SM FEW020 SCT040
     FM010900 VRB03KT 6SM BR BKN015
     FM011400 17007KT P6SM SCT025 SCT250=



000
FTUS44 KHGX 302333
TAFCLL
TAF
KCLL 302333Z 0100/0124 11006KT P6SM SKC
     FM010200 12006KT P6SM FEW020 SCT040
     FM010900 VRB03KT 6SM BR FEW007 BKN015
     FM011400 17007KT P6SM SCT025 SCT250=



000
FTUS44 KHGX 302333
TAFCXO
TAF
KCXO 302333Z 0100/0124 12005KT P6SM OVC100
     FM010600 15004KT 6SM BR BKN015
     FM010900 VRB03KT 3SM BR BKN008
     FM011500 16007KT P6SM BKN025
     FM011800 17008KT P6SM BKN050=



000
FTUS44 KHGX 302132 AAB
TAFHOU
TAF AMD
KHOU 302132Z 3022/0118 13008KT P6SM VCTS SCT035CB SCT050 BKN110
      TEMPO 3022/3023 5SM SHRA BR BKN035
     FM010000 13008KT P6SM FEW030 SCT250
     FM010700 15007KT P6SM SCT015 SCT250
      TEMPO 0109/0111 BKN015
     FM011600 16008KT P6SM SCT030 SCT250=



000
FTUS44 KHGX 302132 AAB
TAFHOU
TAF AMD
KHOU 302132Z 3022/0118 13008KT P6SM VCTS SCT035CB SCT050 BKN110
      TEMPO 3022/3023 5SM SHRA BR BKN035
     FM010000 13008KT P6SM FEW030 SCT250
     FM010700 15007KT P6SM SCT015 SCT250
      TEMPO 0109/0111 BKN015
     FM011600 16008KT P6SM SCT030 SCT250=



000
FTUS44 KHGX 302102 AAA
TAFLBX
TAF AMD
KLBX 302102Z 3021/0118 14012KT P6SM VCTS SCT025CB BKN030
     FM302200 13008KT P6SM SCT050 SCT250
     FM010400 16005KT 6SM BR SCT015 SCT250
     FM011000 16005KT 4SM BR BKN015
     FM011300 18007KT P6SM SCT025 SCT250=



000
FTUS44 KHGX 302102 AAA
TAFLBX
TAF AMD
KLBX 302102Z 3021/0118 14012KT P6SM VCTS SCT025CB BKN030
     FM302200 13008KT P6SM SCT050 SCT250
     FM010400 16005KT 6SM BR SCT015 SCT250
     FM011000 16005KT 4SM BR BKN015
     FM011300 18007KT P6SM SCT025 SCT250=



000
FTUS44 KHGX 302100 AAA
TAFSGR
TAF AMD
KSGR 302100Z 3021/0118 12008KT P6SM VCTS BKN040CB
     FM010000 13008KT P6SM FEW030 SCT250
     FM010700 15004KT P6SM SCT012 SCT250
      TEMPO 0109/0111 BKN012
     FM011600 16008KT P6SM SCT030 SCT250=



000
FTUS44 KHGX 302100 AAA
TAFSGR
TAF AMD
KSGR 302100Z 3021/0118 12008KT P6SM VCTS BKN040CB
     FM010000 13008KT P6SM FEW030 SCT250
     FM010700 15004KT P6SM SCT012 SCT250
      TEMPO 0109/0111 BKN012
     FM011600 16008KT P6SM SCT030 SCT250=



000
FTUS44 KHGX 302059 AAA
TAFHOU
TAF AMD
KHOU 302059Z 3021/0118 13008KT P6SM VCTS SCT035CB SCT050 BKN110
     FM010000 13008KT P6SM FEW030 SCT250
     FM010700 15007KT P6SM SCT015 SCT250
      TEMPO 0109/0111 BKN015
     FM011600 16008KT P6SM SCT030 SCT250=



000
FTUS44 KHGX 302059 AAA
TAFHOU
TAF AMD
KHOU 302059Z 3021/0118 13008KT P6SM VCTS SCT035CB SCT050 BKN110
     FM010000 13008KT P6SM FEW030 SCT250
     FM010700 15007KT P6SM SCT015 SCT250
      TEMPO 0109/0111 BKN015
     FM011600 16008KT P6SM SCT030 SCT250=



000
FTUS44 KHGX 302057 AAA
TAFIAH
TAF AMD
KIAH 302057Z 3021/0124 13008KT P6SM VCTS SCT030CB SCT070 BKN250
     FM010000 13008KT P6SM FEW030 SCT250
     FM010700 15004KT P6SM SCT012 SCT250
      TEMPO 0108/0110 BKN012
     FM011700 16008KT P6SM SCT030 SCT250=



000
FTUS44 KHGX 301723
TAFUTS
TAF
KUTS 301723Z 3018/0118 VRB05KT P6SM SCT030 SCT050
     FM010200 12006KT P6SM FEW020 SCT040
     FM010700 16005KT P6SM FEW007 BKN015
     FM011300 17007KT P6SM SCT025 SCT250=



000
FTUS44 KHGX 301723
TAFCXO
TAF
KCXO 301723Z 3018/0118 15007KT P6SM SCT025 SCT035
     FM302300 12007KT P6SM VCTS BKN035CB
     FM010100 13008KT P6SM FEW030 SCT250
     FM010500 15004KT P6SM SCT012 SCT250
      TEMPO 0108/0112 BKN012
     FM011600 16007KT P6SM SCT030 SCT250=



000
FTUS44 KHGX 301723
TAFCXO
TAF
KCXO 301723Z 3018/0118 15007KT P6SM SCT025 SCT035
     FM302300 12007KT P6SM VCTS BKN035CB
     FM010100 13008KT P6SM FEW030 SCT250
     FM010500 15004KT P6SM SCT012 SCT250
      TEMPO 0108/0112 BKN012
     FM011600 16007KT P6SM SCT030 SCT250=



000
FTUS44 KHGX 301723
TAFHOU
TAF
KHOU 301723Z 3018/0118 12005KT P6SM SCT025 SCT250
     FM302000 12008KT P6SM VCTS BKN035CB
     FM010000 13008KT P6SM FEW030 SCT250
     FM010700 15007KT P6SM SCT015 SCT250
      TEMPO 0109/0111 BKN015
     FM011600 16008KT P6SM SCT030 SCT250=



000
FTUS44 KHGX 301723
TAFHOU
TAF
KHOU 301723Z 3018/0118 12005KT P6SM SCT025 SCT250
     FM302000 12008KT P6SM VCTS BKN035CB
     FM010000 13008KT P6SM FEW030 SCT250
     FM010700 15007KT P6SM SCT015 SCT250
      TEMPO 0109/0111 BKN015
     FM011600 16008KT P6SM SCT030 SCT250=



000
FTUS44 KHGX 301723
TAFIAH
TAF
KIAH 301723Z 3018/0124 VRB05KT P6SM SCT020 SCT250
     FM302100 12008KT P6SM VCTS BKN035CB
     FM010000 13008KT P6SM FEW030 SCT250
     FM010700 15004KT P6SM SCT012 SCT250
      TEMPO 0108/0110 BKN012
     FM011700 16008KT P6SM SCT030 SCT250=



000
FTUS44 KHGX 301723
TAFIAH
TAF
KIAH 301723Z 3018/0124 VRB05KT P6SM SCT020 SCT250
     FM302100 12008KT P6SM VCTS BKN035CB
     FM010000 13008KT P6SM FEW030 SCT250
     FM010700 15004KT P6SM SCT012 SCT250
      TEMPO 0108/0110 BKN012
     FM011700 16008KT P6SM SCT030 SCT250=



000
FTUS44 KHGX 301723
TAFUTS
TAF
KUTS 301723Z 3018/0118 VRB05KT P6SM SCT030 SCT050
     FM010200 12006KT P6SM FEW020 SCT040
     FM010700 16005KT P6SM FEW007 BKN015
     FM011300 17007KT P6SM SCT025 SCT250=



000
FTUS44 KHGX 301723
TAFSGR
TAF
KSGR 301723Z 3018/0118 14008KT P6SM SCT035 BKN250
     FM302000 12008KT P6SM VCTS BKN035CB
     FM010000 13008KT P6SM FEW030 SCT250
     FM010700 15004KT P6SM SCT012 SCT250
      TEMPO 0109/0111 BKN012
     FM011600 16008KT P6SM SCT030 SCT250=



000
FTUS44 KHGX 301723
TAFSGR
TAF
KSGR 301723Z 3018/0118 14008KT P6SM SCT035 BKN250
     FM302000 12008KT P6SM VCTS BKN035CB
     FM010000 13008KT P6SM FEW030 SCT250
     FM010700 15004KT P6SM SCT012 SCT250
      TEMPO 0109/0111 BKN012
     FM011600 16008KT P6SM SCT030 SCT250=



000
FTUS44 KHGX 301723
TAFCLL
TAF
KCLL 301723Z 3018/0118 14005KT P6SM SCT030
     FM010200 12006KT P6SM FEW020 SCT040
     FM010500 16009KT P6SM FEW007 BKN015
     FM011300 17007KT P6SM SCT025 SCT250=



000
FTUS44 KHGX 301723
TAFLBX
TAF
KLBX 301723Z 3018/0118 13005KT P6SM SCT030 BKN040
     FM301900 12008KT P6SM VCTS SCT035CB BKN050
     FM302200 13008KT P6SM SCT050 SCT250
     FM010400 16005KT 6SM BR SCT015 SCT250
     FM011000 16005KT 4SM BR BKN015
     FM011300 18007KT P6SM SCT025 SCT250=



000
FTUS44 KHGX 301723
TAFGLS
TAF
KGLS 301723Z 3018/0118 11008KT P6SM SCT015 SCT250
     FM302100 12010KT P6SM SCT025
     FM010600 14012KT P6SM FEW007 SCT015 SCT250
      TEMPO 0109/0112 BKN015
     FM011300 17010KT P6SM SCT025 SCT250=



000
FTUS44 KHGX 301723
TAFGLS
TAF
KGLS 301723Z 3018/0118 11008KT P6SM SCT015 SCT250
     FM302100 12010KT P6SM SCT025
     FM010600 14012KT P6SM FEW007 SCT015 SCT250
      TEMPO 0109/0112 BKN015
     FM011300 17010KT P6SM SCT025 SCT250=



000
FTUS44 KHGX 301723
TAFLBX
TAF
KLBX 301723Z 3018/0118 13005KT P6SM SCT030 BKN040
     FM301900 12008KT P6SM VCTS SCT035CB BKN050
     FM302200 13008KT P6SM SCT050 SCT250
     FM010400 16005KT 6SM BR SCT015 SCT250
     FM011000 16005KT 4SM BR BKN015
     FM011300 18007KT P6SM SCT025 SCT250=



000
FTUS44 KHGX 301723
TAFCLL
TAF
KCLL 301723Z 3018/0118 14005KT P6SM SCT030
     FM010200 12006KT P6SM FEW020 SCT040
     FM010500 16009KT P6SM FEW007 BKN015
     FM011300 17007KT P6SM SCT025 SCT250=



000
FTUS44 KHGX 301456 AAA
TAFHOU
TAF AMD
KHOU 301456Z 3015/0112 VRB05KT P6SM FEW100 FEW250
     FM301800 12005KT P6SM SCT035 BKN250
     FM010100 15007KT P6SM FEW030 SCT250
     FM011000 14003KT P6SM SCT015=



000
FTUS44 KHGX 301456 AAA
TAFHOU
TAF AMD
KHOU 301456Z 3015/0112 VRB05KT P6SM FEW100 FEW250
     FM301800 12005KT P6SM SCT035 BKN250
     FM010100 15007KT P6SM FEW030 SCT250
     FM011000 14003KT P6SM SCT015=



000
FTUS44 KHGX 301456 AAA
TAFIAH
TAF AMD
KIAH 301456Z 3015/0118 VRB05KT P6SM FEW250
     FM301800 12005KT P6SM SCT035 BKN250
     FM010100 15007KT P6SM FEW030 SCT250
     FM011000 14003KT P6SM SCT015
     FM011500 16008KT P6SM SCT025=



000
FTUS44 KHGX 301357 AAA
TAFLBX
TAF AMD
KLBX 301357Z 3014/0112 VRB05KT P6SM SCT020 SCT250
     FM301800 11006KT P6SM SCT035 BKN250
     FM302100 14007KT P6SM FEW035 SCT250
     FM010400 15003KT 6SM BR SCT020
     FM010700 VRB02KT 3SM BR SCT015=



000
FTUS44 KHGX 301135
TAFLBX
TAF
KLBX 301135Z 3012/0112 36004KT 3SM BR FEW003 FEW100
      TEMPO 3012/3014 1SM BR SCT003
     FM301400 VRB05KT P6SM SCT020 SCT250
     FM301800 11006KT P6SM SCT035 BKN250
     FM302100 14007KT P6SM FEW035 SCT250
     FM010400 15003KT 6SM BR SCT020
     FM010700 VRB02KT 3SM BR SCT015=



000
FTUS44 KHGX 301135
TAFIAH
TAF
KIAH 301135Z 3012/0118 VRB03KT P6SM FEW025 SCT120
     FM301800 12005KT P6SM SCT035 BKN250
     FM010100 15007KT P6SM FEW030 SCT250
     FM011000 14003KT P6SM SCT015
     FM011500 16008KT P6SM SCT025=



000
FTUS44 KHGX 301135
TAFCXO
TAF
KCXO 301135Z 3012/0112 00000KT 6SM BR FEW030
      TEMPO 3012/3014 4SM BR SCT007
     FM301430 VRB05KT P6SM SCT020
     FM301800 15007KT P6SM SCT040
     FM010100 14003KT P6SM FEW030 SCT250
     FM010900 VRB03KT 4SM BR BKN015=



000
FTUS44 KHGX 301135
TAFGLS
TAF
KGLS 301135Z 3012/0112 03004KT 6SM BR FEW018
     FM301600 11008KT P6SM SCT025 SCT250
     FM302100 14010KT P6SM SCT025
     FM010600 16008KT P6SM FEW015=



000
FTUS44 KHGX 301135
TAFSGR
TAF
KSGR 301135Z 3012/0112 00000KT 4SM BR SKC
     FM301400 VRB03KT P6SM FEW025 SCT120
     FM301800 14008KT P6SM SCT035 BKN250
     FM010100 15005KT P6SM FEW030 SCT250
     FM011000 14003KT 4SM BR BKN015=



000
FTUS44 KHGX 301135
TAFCXO
TAF
KCXO 301135Z 3012/0112 00000KT 6SM BR FEW030
      TEMPO 3012/3014 4SM BR SCT007
     FM301430 VRB05KT P6SM SCT020
     FM301800 15007KT P6SM SCT040
     FM010100 14003KT P6SM FEW030 SCT250
     FM010900 VRB03KT 4SM BR BKN015=



000
FTUS44 KHGX 301135
TAFGLS
TAF
KGLS 301135Z 3012/0112 03004KT 6SM BR FEW018
     FM301600 11008KT P6SM SCT025 SCT250
     FM302100 14010KT P6SM SCT025
     FM010600 16008KT P6SM FEW015=



000
FTUS44 KHGX 301135
TAFHOU
TAF
KHOU 301135Z 3012/0112 VRB03KT P6SM FEW025 SCT120
     FM301800 12005KT P6SM SCT035 BKN250
     FM010100 15007KT P6SM FEW030 SCT250
     FM011000 14003KT P6SM SCT015=



000
FTUS44 KHGX 301135
TAFUTS
TAF
KUTS 301135Z 3012/0112 00000KT P6SM SKC
     FM301400 VRB04KT P6SM SCT025 SCT250
     FM301800 17004KT P6SM SCT040 SCT250
     FM010000 17003KT P6SM SCT250
     FM011000 VRB02KT 4SM BR BKN015=



000
FTUS44 KHGX 301135
TAFCLL
TAF
KCLL 301135Z 3012/0112 00000KT P6SM FEW040
     FM301500 VRB04KT P6SM SCT025 SCT250
     FM301800 15006KT P6SM SCT040 SCT250
     FM010000 15004KT P6SM SCT250
     FM011000 VRB03KT 6SM BR BKN015=



000
FTUS44 KHGX 301135
TAFIAH
TAF
KIAH 301135Z 3012/0118 VRB03KT P6SM FEW025 SCT120
     FM301800 12005KT P6SM SCT035 BKN250
     FM010100 15007KT P6SM FEW030 SCT250
     FM011000 14003KT P6SM SCT015
     FM011500 16008KT P6SM SCT025=



000
FTUS44 KHGX 301135
TAFLBX
TAF
KLBX 301135Z 3012/0112 36004KT 3SM BR FEW003 FEW100
      TEMPO 3012/3014 1SM BR SCT003
     FM301400 VRB05KT P6SM SCT020 SCT250
     FM301800 11006KT P6SM SCT035 BKN250
     FM302100 14007KT P6SM FEW035 SCT250
     FM010400 15003KT 6SM BR SCT020
     FM010700 VRB02KT 3SM BR SCT015=



000
FTUS44 KHGX 301135
TAFUTS
TAF
KUTS 301135Z 3012/0112 00000KT P6SM SKC
     FM301400 VRB04KT P6SM SCT025 SCT250
     FM301800 17004KT P6SM SCT040 SCT250
     FM010000 17003KT P6SM SCT250
     FM011000 VRB02KT 4SM BR BKN015=



000
FTUS44 KHGX 301135
TAFHOU
TAF
KHOU 301135Z 3012/0112 VRB03KT P6SM FEW025 SCT120
     FM301800 12005KT P6SM SCT035 BKN250
     FM010100 15007KT P6SM FEW030 SCT250
     FM011000 14003KT P6SM SCT015=



000
FTUS44 KHGX 301135
TAFSGR
TAF
KSGR 301135Z 3012/0112 00000KT 4SM BR SKC
     FM301400 VRB03KT P6SM FEW025 SCT120
     FM301800 14008KT P6SM SCT035 BKN250
     FM010100 15005KT P6SM FEW030 SCT250
     FM011000 14003KT 4SM BR BKN015=



000
FTUS44 KHGX 301135
TAFCLL
TAF
KCLL 301135Z 3012/0112 00000KT P6SM FEW040
     FM301500 VRB04KT P6SM SCT025 SCT250
     FM301800 15006KT P6SM SCT040 SCT250
     FM010000 15004KT P6SM SCT250
     FM011000 VRB03KT 6SM BR BKN015=



000
FTUS44 KHGX 300908 AAA
TAFHOU
TAF AMD
KHOU 300908Z 3009/0106 VRB03KT P6SM SCT020
     FM301800 12005KT P6SM SCT035 BKN250
     FM010100 15007KT P6SM FEW030 SCT250=



000
FTUS44 KHGX 300908 AAA
TAFHOU
TAF AMD
KHOU 300908Z 3009/0106 VRB03KT P6SM SCT020
     FM301800 12005KT P6SM SCT035 BKN250
     FM010100 15007KT P6SM FEW030 SCT250=



000
FTUS44 KHGX 300907 AAA
TAFIAH
TAF AMD
KIAH 300907Z 3009/0112 01003KT P6SM FEW025 SCT120
     FM301800 12005KT P6SM SCT035 BKN250
     FM010100 15007KT P6SM FEW030 SCT250
     FM010900 14005KT P6SM SCT018=



000
FTUS44 KHGX 300907 AAA
TAFIAH
TAF AMD
KIAH 300907Z 3009/0112 01003KT P6SM FEW025 SCT120
     FM301800 12005KT P6SM SCT035 BKN250
     FM010100 15007KT P6SM FEW030 SCT250
     FM010900 14005KT P6SM SCT018=



000
FTUS44 KHGX 300530
TAFGLS
TAF
KGLS 300530Z 3006/0106 04003KT P6SM SCT025
     FM300900 VRB05KT P6SM SCT012
     FM301600 10008KT P6SM SCT025 SCT250
     FM302100 14010KT P6SM SCT025=



000
FTUS44 KHGX 300530
TAFHOU
TAF
KHOU 300530Z 3006/0106 VRB03KT P6SM SCT035
     FM301000 VRB04KT P6SM SCT020
     FM301800 12005KT P6SM SCT035 BKN250
     FM010100 15007KT P6SM FEW030 SCT250=



000
FTUS44 KHGX 300530
TAFSGR
TAF
KSGR 300530Z 3006/0106 VRB03KT P6SM SCT120
     FM301000 VRB04KT P6SM SCT020
      TEMPO 3010/3014 4SM BR SCT010
     FM301800 12005KT P6SM SCT035 BKN250
     FM010100 15007KT P6SM FEW030 SCT250=



000
FTUS44 KHGX 300530
TAFCXO
TAF
KCXO 300530Z 3006/0106 VRB04KT P6SM FEW035
     FM300800 VRB02KT 5SM BR FEW015
      TEMPO 3010/3014 1 1/2SM BR SCT007
     FM301430 VRB05KT P6SM SCT020
     FM301800 15005KT P6SM SCT040
     FM010100 15007KT P6SM FEW030 SCT250=



000
FTUS44 KHGX 300530
TAFCLL
TAF
KCLL 300530Z 3006/0106 VRB04KT P6SM FEW035
     FM300900 07002KT 4SM BR SCT015 SCT035
     FM301500 VRB04KT P6SM SCT025 SCT250
     FM301800 15006KT P6SM SCT040 SCT250
     FM010000 15007KT P6SM SCT250=



000
FTUS44 KHGX 300530
TAFIAH
TAF
KIAH 300530Z 3006/0112 04003KT P6SM SCT120
     FM301000 VRB04KT P6SM SCT020
     FM301800 12005KT P6SM SCT035 BKN250
     FM010100 15007KT P6SM FEW030 SCT250
     FM010900 14005KT P6SM SCT018=



000
FTUS44 KHGX 300530
TAFLBX
TAF
KLBX 300530Z 3006/0106 VRB03KT 6SM BR FEW030
     FM300900 00000KT 3SM BR SCT010 SCT250
      TEMPO 3010/3013 1SM BR SCT005
     FM301400 VRB05KT P6SM SCT020 SCT250
     FM301800 11006KT P6SM SCT035 BKN250
     FM302100 14007KT P6SM FEW035 SCT250
     FM010400 15004KT 6SM BR SCT020=



000
FTUS44 KHGX 300530
TAFUTS
TAF
KUTS 300530Z 3006/0106 VRB04KT P6SM FEW035
      TEMPO 3010/3013 5SM BR SCT015
     FM301500 VRB04KT P6SM SCT025 SCT250
     FM301800 17004KT P6SM SCT040 SCT250
     FM010000 17003KT P6SM SCT250=



000
FTUS44 KHGX 300530
TAFUTS
TAF
KUTS 300530Z 3006/0106 VRB04KT P6SM FEW035
      TEMPO 3010/3013 5SM BR SCT015
     FM301500 VRB04KT P6SM SCT025 SCT250
     FM301800 17004KT P6SM SCT040 SCT250
     FM010000 17003KT P6SM SCT250=



000
FTUS44 KHGX 300530
TAFSGR
TAF
KSGR 300530Z 3006/0106 VRB03KT P6SM SCT120
     FM301000 VRB04KT P6SM SCT020
      TEMPO 3010/3014 4SM BR SCT010
     FM301800 12005KT P6SM SCT035 BKN250
     FM010100 15007KT P6SM FEW030 SCT250=



000
FTUS44 KHGX 300530
TAFLBX
TAF
KLBX 300530Z 3006/0106 VRB03KT 6SM BR FEW030
     FM300900 00000KT 3SM BR SCT010 SCT250
      TEMPO 3010/3013 1SM BR SCT005
     FM301400 VRB05KT P6SM SCT020 SCT250
     FM301800 11006KT P6SM SCT035 BKN250
     FM302100 14007KT P6SM FEW035 SCT250
     FM010400 15004KT 6SM BR SCT020=



000
FTUS44 KHGX 300530
TAFIAH
TAF
KIAH 300530Z 3006/0112 04003KT P6SM SCT120
     FM301000 VRB04KT P6SM SCT020
     FM301800 12005KT P6SM SCT035 BKN250
     FM010100 15007KT P6SM FEW030 SCT250
     FM010900 14005KT P6SM SCT018=



000
FTUS44 KHGX 300530
TAFCLL
TAF
KCLL 300530Z 3006/0106 VRB04KT P6SM FEW035
     FM300900 07002KT 4SM BR SCT015 SCT035
     FM301500 VRB04KT P6SM SCT025 SCT250
     FM301800 15006KT P6SM SCT040 SCT250
     FM010000 15007KT P6SM SCT250=



000
FTUS44 KHGX 300530
TAFGLS
TAF
KGLS 300530Z 3006/0106 04003KT P6SM SCT025
     FM300900 VRB05KT P6SM SCT012
     FM301600 10008KT P6SM SCT025 SCT250
     FM302100 14010KT P6SM SCT025=



000
FTUS44 KHGX 300530
TAFHOU
TAF
KHOU 300530Z 3006/0106 VRB03KT P6SM SCT035
     FM301000 VRB04KT P6SM SCT020
     FM301800 12005KT P6SM SCT035 BKN250
     FM010100 15007KT P6SM FEW030 SCT250=



000
FTUS44 KHGX 300530
TAFCXO
TAF
KCXO 300530Z 3006/0106 VRB04KT P6SM FEW035
     FM300800 VRB02KT 5SM BR FEW015
      TEMPO 3010/3014 1 1/2SM BR SCT007
     FM301430 VRB05KT P6SM SCT020
     FM301800 15005KT P6SM SCT040
     FM010100 15007KT P6SM FEW030 SCT250=



000
FTUS44 KHGX 300321 AAA
TAFHOU
TAF AMD
KHOU 300321Z 3003/3024 00000KT P6SM SCT035
     FM301500 VRB05KT P6SM SCT025 SCT250
     FM301800 12005KT P6SM SCT040
     FM302300 14007KT P6SM FEW040 SCT250=



000
FTUS44 KHGX 300321 AAA
TAFIAH
TAF AMD
KIAH 300321Z 3003/0106 04004KT P6SM FEW035 SCT120
     FM301500 09004KT P6SM SCT025
     FM301800 12005KT P6SM SCT040
     FM010000 14007KT P6SM FEW040 SCT250
     FM010500 14005KT P6SM FEW250=



000
FTUS44 KHGX 300321 AAA
TAFHOU
TAF AMD
KHOU 300321Z 3003/3024 00000KT P6SM SCT035
     FM301500 VRB05KT P6SM SCT025 SCT250
     FM301800 12005KT P6SM SCT040
     FM302300 14007KT P6SM FEW040 SCT250=



000
FTUS44 KHGX 300321 AAA
TAFIAH
TAF AMD
KIAH 300321Z 3003/0106 04004KT P6SM FEW035 SCT120
     FM301500 09004KT P6SM SCT025
     FM301800 12005KT P6SM SCT040
     FM010000 14007KT P6SM FEW040 SCT250
     FM010500 14005KT P6SM FEW250=



000
FTUS44 KHGX 292341
TAFCXO
TAF
KCXO 292341Z 3000/3024 VRB04KT P6SM FEW040
     FM301000 VRB02KT 6SM BR FEW015 SCT250
     FM301400 VRB05KT P6SM SCT020
     FM301800 15005KT P6SM SCT040=



000
FTUS44 KHGX 292341
TAFIAH
TAF
KIAH 292341Z 3000/0106 VRB04KT P6SM FEW035 SCT070
     FM301500 09004KT P6SM SCT025
     FM301800 12005KT P6SM SCT040
     FM010000 14007KT P6SM FEW040 SCT250
     FM010500 14005KT P6SM FEW250=



000
FTUS44 KHGX 292341
TAFSGR
TAF
KSGR 292341Z 3000/3024 VRB04KT P6SM FEW035 SCT070
     FM301500 VRB05KT P6SM SCT025 SCT250
     FM301800 12005KT P6SM SCT040
     FM302300 14007KT P6SM FEW040 SCT250=



000
FTUS44 KHGX 292341
TAFCLL
TAF
KCLL 292341Z 3000/3024 VRB04KT P6SM FEW050
     FM301500 VRB04KT P6SM SCT025 SCT250
     FM301800 15006KT P6SM SCT040 SCT250=



000
FTUS44 KHGX 292341
TAFUTS
TAF
KUTS 292341Z 3000/3024 VRB04KT P6SM FEW050
     FM301500 VRB04KT P6SM SCT025 SCT250
     FM301800 15006KT P6SM SCT250=



000
FTUS44 KHGX 292341
TAFHOU
TAF
KHOU 292341Z 3000/3024 VRB04KT P6SM FEW035 SCT070
     FM301500 VRB05KT P6SM SCT025 SCT250
     FM301800 12005KT P6SM SCT040
     FM302300 14007KT P6SM FEW040 SCT250=



000
FTUS44 KHGX 292341
TAFLBX
TAF
KLBX 292341Z 3000/3024 09005KT P6SM FEW025
     FM300900 00000KT 6SM BR SCT010 SCT250
     FM301400 12006KT P6SM SCT020 SCT250
     FM301800 09005KT P6SM SCT035
     FM302100 14007KT P6SM FEW035 SCT250=



000
FTUS44 KHGX 292341
TAFGLS
TAF
KGLS 292341Z 3000/3024 11006KT P6SM SCT025
     FM300900 VRB05KT P6SM SCT012
     FM301600 12009KT P6SM SCT025 SCT250=



000
FTUS44 KHGX 292341
TAFHOU
TAF
KHOU 292341Z 3000/3024 VRB04KT P6SM FEW035 SCT070
     FM301500 VRB05KT P6SM SCT025 SCT250
     FM301800 12005KT P6SM SCT040
     FM302300 14007KT P6SM FEW040 SCT250=



000
FTUS44 KHGX 292341
TAFIAH
TAF
KIAH 292341Z 3000/0106 VRB04KT P6SM FEW035 SCT070
     FM301500 09004KT P6SM SCT025
     FM301800 12005KT P6SM SCT040
     FM010000 14007KT P6SM FEW040 SCT250
     FM010500 14005KT P6SM FEW250=



000
FTUS44 KHGX 292341
TAFCLL
TAF
KCLL 292341Z 3000/3024 VRB04KT P6SM FEW050
     FM301500 VRB04KT P6SM SCT025 SCT250
     FM301800 15006KT P6SM SCT040 SCT250=



000
FTUS44 KHGX 292341
TAFUTS
TAF
KUTS 292341Z 3000/3024 VRB04KT P6SM FEW050
     FM301500 VRB04KT P6SM SCT025 SCT250
     FM301800 15006KT P6SM SCT250=



000
FTUS44 KHGX 292341
TAFLBX
TAF
KLBX 292341Z 3000/3024 09005KT P6SM FEW025
     FM300900 00000KT 6SM BR SCT010 SCT250
     FM301400 12006KT P6SM SCT020 SCT250
     FM301800 09005KT P6SM SCT035
     FM302100 14007KT P6SM FEW035 SCT250=



000
FTUS44 KHGX 292341
TAFCXO
TAF
KCXO 292341Z 3000/3024 VRB04KT P6SM FEW040
     FM301000 VRB02KT 6SM BR FEW015 SCT250
     FM301400 VRB05KT P6SM SCT020
     FM301800 15005KT P6SM SCT040=



000
FTUS44 KHGX 292341
TAFGLS
TAF
KGLS 292341Z 3000/3024 11006KT P6SM SCT025
     FM300900 VRB05KT P6SM SCT012
     FM301600 12009KT P6SM SCT025 SCT250=



000
FTUS44 KHGX 292341
TAFSGR
TAF
KSGR 292341Z 3000/3024 VRB04KT P6SM FEW035 SCT070
     FM301500 VRB05KT P6SM SCT025 SCT250
     FM301800 12005KT P6SM SCT040
     FM302300 14007KT P6SM FEW040 SCT250=



000
FTUS44 KHGX 292206 AAA
TAFIAH
TAF AMD
KIAH 292206Z 2922/3024 03007KT P6SM SCT040 SCT070
     FM300300 VRB02KT P6SM SCT020 SCT250
     FM301900 15007KT P6SM SCT030 SCT250=



000
FTUS44 KHGX 292206 AAA
TAFHOU
TAF AMD
KHOU 292206Z 2922/3018 09004KT P6SM SCT060 BKN080
     FM300300 VRB04KT P6SM FEW040 FEW250
     FM301200 VRB04KT P6SM FEW015 SCT250
     FM301500 12007KT P6SM SCT030 SCT250=



000
FTUS44 KHGX 292206 AAA
TAFHOU
TAF AMD
KHOU 292206Z 2922/3018 09004KT P6SM SCT060 BKN080
     FM300300 VRB04KT P6SM FEW040 FEW250
     FM301200 VRB04KT P6SM FEW015 SCT250
     FM301500 12007KT P6SM SCT030 SCT250=



000
FTUS44 KHGX 292206 AAA
TAFIAH
TAF AMD
KIAH 292206Z 2922/3024 03007KT P6SM SCT040 SCT070
     FM300300 VRB02KT P6SM SCT020 SCT250
     FM301900 15007KT P6SM SCT030 SCT250=



000
FTUS44 KHGX 291726
TAFUTS
TAF
KUTS 291726Z 2918/3018 01008KT P6SM FEW035
     FM292100 VRB06KT P6SM SCT040
     FM300200 VRB03KT P6SM FEW050 FEW250
     FM301100 00000KT 6SM BR FEW010 SCT250
     FM301400 VRB04KT P6SM SCT030 SCT250=



000
FTUS44 KHGX 291726
TAFCXO
TAF
KCXO 291726Z 2918/3018 03008KT P6SM SCT030
      TEMPO 2918/2920 BKN030
     FM292100 VRB06KT P6SM SCT040
     FM300200 VRB03KT P6SM FEW050 SCT250
     FM301200 VRB02KT 6SM BR FEW015 SCT250
     FM301400 VRB05KT P6SM SCT025 SCT250=



000
FTUS44 KHGX 291726
TAFSGR
TAF
KSGR 291726Z 2918/3018 04008KT P6SM SCT025 BKN035
     FM292100 06007KT P6SM SCT035 SCT050
     FM300000 VRB03KT P6SM FEW040 FEW250
     FM301200 VRB02KT P6SM FEW015 SCT250
     FM301500 12006KT P6SM SCT030 SCT250=



000
FTUS44 KHGX 291726
TAFIAH
TAF
KIAH 291726Z 2918/3024 04010KT P6SM SCT030
      TEMPO 2918/2920 BKN030
     FM292100 05005KT P6SM SCT040
     FM300300 VRB02KT P6SM SCT020 SCT250
     FM301900 15007KT P6SM SCT030 SCT250=



000
FTUS44 KHGX 291726
TAFCLL
TAF
KCLL 291726Z 2918/3018 03009KT P6SM FEW035
     FM292100 03006KT P6SM SCT040
     FM300300 VRB03KT P6SM SCT030 SCT250
     FM301500 VRB06KT P6SM SCT040 SCT250=



000
FTUS44 KHGX 291726
TAFHOU
TAF
KHOU 291726Z 2918/3018 01010KT P6SM SCT025
      TEMPO 2919/2921 BKN030
     FM292100 06007KT P6SM SCT035
     FM300000 VRB04KT P6SM FEW040 FEW250
     FM301200 VRB04KT P6SM FEW015 SCT250
     FM301500 12007KT P6SM SCT030 SCT250=



000
FTUS44 KHGX 291726
TAFLBX
TAF
KLBX 291726Z 2918/3018 03008KT P6SM FEW025 BKN040
     FM292200 08008KT P6SM SCT045
     FM300000 VRB02KT P6SM FEW250
     FM300900 00000KT 6SM BR SCT010 SCT250
     FM301300 12006KT P6SM SCT020 SCT250=



000
FTUS44 KHGX 291726
TAFGLS
TAF
KGLS 291726Z 2918/3018 01009KT P6SM SCT015 BKN020 BKN030
     FM292100 08009KT P6SM FEW025 SCT040
     FM300400 VRB06KT P6SM SCT020 SCT250
     FM301600 12009KT P6SM SCT025 SCT250=



000
FTUS44 KHGX 291726
TAFCLL
TAF
KCLL 291726Z 2918/3018 03009KT P6SM FEW035
     FM292100 03006KT P6SM SCT040
     FM300300 VRB03KT P6SM SCT030 SCT250
     FM301500 VRB06KT P6SM SCT040 SCT250=



000
FTUS44 KHGX 291726
TAFUTS
TAF
KUTS 291726Z 2918/3018 01008KT P6SM FEW035
     FM292100 VRB06KT P6SM SCT040
     FM300200 VRB03KT P6SM FEW050 FEW250
     FM301100 00000KT 6SM BR FEW010 SCT250
     FM301400 VRB04KT P6SM SCT030 SCT250=



000
FTUS44 KHGX 291726
TAFGLS
TAF
KGLS 291726Z 2918/3018 01009KT P6SM SCT015 BKN020 BKN030
     FM292100 08009KT P6SM FEW025 SCT040
     FM300400 VRB06KT P6SM SCT020 SCT250
     FM301600 12009KT P6SM SCT025 SCT250=



000
FTUS44 KHGX 291726
TAFCXO
TAF
KCXO 291726Z 2918/3018 03008KT P6SM SCT030
      TEMPO 2918/2920 BKN030
     FM292100 VRB06KT P6SM SCT040
     FM300200 VRB03KT P6SM FEW050 SCT250
     FM301200 VRB02KT 6SM BR FEW015 SCT250
     FM301400 VRB05KT P6SM SCT025 SCT250=



000
FTUS44 KHGX 291726
TAFHOU
TAF
KHOU 291726Z 2918/3018 01010KT P6SM SCT025
      TEMPO 2919/2921 BKN030
     FM292100 06007KT P6SM SCT035
     FM300000 VRB04KT P6SM FEW040 FEW250
     FM301200 VRB04KT P6SM FEW015 SCT250
     FM301500 12007KT P6SM SCT030 SCT250=



000
FTUS44 KHGX 291726
TAFSGR
TAF
KSGR 291726Z 2918/3018 04008KT P6SM SCT025 BKN035
     FM292100 06007KT P6SM SCT035 SCT050
     FM300000 VRB03KT P6SM FEW040 FEW250
     FM301200 VRB02KT P6SM FEW015 SCT250
     FM301500 12006KT P6SM SCT030 SCT250=



000
FTUS44 KHGX 291726
TAFLBX
TAF
KLBX 291726Z 2918/3018 03008KT P6SM FEW025 BKN040
     FM292200 08008KT P6SM SCT045
     FM300000 VRB02KT P6SM FEW250
     FM300900 00000KT 6SM BR SCT010 SCT250
     FM301300 12006KT P6SM SCT020 SCT250=



000
FTUS44 KHGX 291726
TAFIAH
TAF
KIAH 291726Z 2918/3024 04010KT P6SM SCT030
      TEMPO 2918/2920 BKN030
     FM292100 05005KT P6SM SCT040
     FM300300 VRB02KT P6SM SCT020 SCT250
     FM301900 15007KT P6SM SCT030 SCT250=



000
FTUS44 KHGX 291507 AAA
TAFHOU
TAF AMD
KHOU 291507Z 2915/3012 03007KT P6SM SCT015 SCT040
     FM292000 06007KT P6SM FEW020 SCT045
     FM300000 10007KT P6SM BKN060
     FM300300 VRB04KT P6SM SCT250=



000
FTUS44 KHGX 291506 AAA
TAFIAH
TAF AMD
KIAH 291506Z 2915/3018 03005KT P6SM SCT025
     FM291800 06008KT P6SM SCT045
     FM300200 VRB04KT P6SM SCT250=



000
FTUS44 KHGX 291506 AAA
TAFIAH
TAF AMD
KIAH 291506Z 2915/3018 03005KT P6SM SCT025
     FM291800 06008KT P6SM SCT045
     FM300200 VRB04KT P6SM SCT250=



000
FTUS44 KHGX 291506 AAA
TAFLBX
TAF AMD
KLBX 291506Z 2915/3012 02007KT P6SM SCT010
      TEMPO 2915/2916 BKN010
     FM292200 11008KT P6SM SCT045
     FM300000 VRB03KT P6SM SCT250
     FM300700 00000KT 6SM BR SCT250=



000
FTUS44 KHGX 291506 AAA
TAFLBX
TAF AMD
KLBX 291506Z 2915/3012 02007KT P6SM SCT010
      TEMPO 2915/2916 BKN010
     FM292200 11008KT P6SM SCT045
     FM300000 VRB03KT P6SM SCT250
     FM300700 00000KT 6SM BR SCT250=



000
FTUS44 KHGX 291505 AAA
TAFGLS
TAF AMD
KGLS 291505Z 2915/3012 01011KT P6SM OVC008
      TEMPO 2915/2917 SCT008
     FM291700 06008KT P6SM SCT008
     FM292100 11007KT P6SM FEW025 SCT250
     FM300400 10005KT P6SM SCT015=



000
FTUS44 KHGX 291505 AAA
TAFGLS
TAF AMD
KGLS 291505Z 2915/3012 01011KT P6SM OVC008
      TEMPO 2915/2917 SCT008
     FM291700 06008KT P6SM SCT008
     FM292100 11007KT P6SM FEW025 SCT250
     FM300400 10005KT P6SM SCT015=



000
FTUS44 KHGX 291233 AAA
TAFUTS
TAF AMD
KUTS 291233Z 2913/3012 00000KT P6SM SCT002
      TEMPO 2913/2914 BKN002
     FM291400 VRB03KT P6SM FEW025
     FM292100 VRB03KT P6SM SCT050
     FM300000 00000KT 6SM BR FEW050=



000
FTUS44 KHGX 291233 AAA
TAFUTS
TAF AMD
KUTS 291233Z 2913/3012 00000KT P6SM SCT002
      TEMPO 2913/2914 BKN002
     FM291400 VRB03KT P6SM FEW025
     FM292100 VRB03KT P6SM SCT050
     FM300000 00000KT 6SM BR FEW050=



000
FTUS44 KHGX 291120
TAFGLS
TAF
KGLS 291120Z 2912/3012 03007KT P6SM SKC
     FM291800 06008KT P6SM SCT025
     FM292100 11007KT P6SM FEW025 SCT250
     FM300400 10005KT P6SM SCT015=



000
FTUS44 KHGX 291120
TAFLBX
TAF
KLBX 291120Z 2912/3012 03007KT P6SM SCT025
     FM292200 11008KT P6SM SCT045
     FM300000 VRB03KT P6SM SCT250
     FM300700 00000KT 6SM BR SCT250=



000
FTUS44 KHGX 291120
TAFCLL
TAF
KCLL 291120Z 2912/3012 00000KT P6SM SKC
     FM291500 03007KT P6SM FEW025
     FM292100 03006KT P6SM SCT040
     FM300300 05003KT P6SM FEW050=



000
FTUS44 KHGX 291120
TAFCXO
TAF
KCXO 291120Z 2912/3012 VRB02KT P6SM MIFG SKC
     FM291400 02004KT P6SM SCT020
     FM292100 06006KT P6SM SCT045
     FM300800 00000KT 6SM BR SCT250=



000
FTUS44 KHGX 291120
TAFSGR
TAF
KSGR 291120Z 2912/3012 VRB02KT P6SM SKC
     FM291500 03007KT P6SM SCT025
     FM292100 06007KT P6SM SCT045
     FM300200 VRB03KT P6SM SCT250=



000
FTUS44 KHGX 291120
TAFIAH
TAF
KIAH 291120Z 2912/3018 35003KT P6SM FEW250
     FM291500 03006KT P6SM SCT025
     FM291800 06008KT P6SM SCT045
     FM300200 VRB04KT P6SM SCT250=



000
FTUS44 KHGX 291120
TAFHOU
TAF
KHOU 291120Z 2912/3012 36003KT P6SM SKC
     FM291500 04007KT P6SM SCT025
     FM292100 06007KT P6SM SCT045
     FM300000 10007KT P6SM BKN060
     FM300300 VRB04KT P6SM SCT250=



000
FTUS44 KHGX 291120
TAFUTS
TAF
KUTS 291120Z 2912/3012 VRB03KT P6SM FEW025
     FM292100 VRB03KT P6SM SCT050
     FM300000 00000KT 6SM BR FEW050=



000
FTUS44 KHGX 291120
TAFCLL
TAF
KCLL 291120Z 2912/3012 00000KT P6SM SKC
     FM291500 03007KT P6SM FEW025
     FM292100 03006KT P6SM SCT040
     FM300300 05003KT P6SM FEW050=



000
FTUS44 KHGX 291120
TAFHOU
TAF
KHOU 291120Z 2912/3012 36003KT P6SM SKC
     FM291500 04007KT P6SM SCT025
     FM292100 06007KT P6SM SCT045
     FM300000 10007KT P6SM BKN060
     FM300300 VRB04KT P6SM SCT250=



000
FTUS44 KHGX 291120
TAFUTS
TAF
KUTS 291120Z 2912/3012 VRB03KT P6SM FEW025
     FM292100 VRB03KT P6SM SCT050
     FM300000 00000KT 6SM BR FEW050=



000
FTUS44 KHGX 291120
TAFLBX
TAF
KLBX 291120Z 2912/3012 03007KT P6SM SCT025
     FM292200 11008KT P6SM SCT045
     FM300000 VRB03KT P6SM SCT250
     FM300700 00000KT 6SM BR SCT250=



000
FTUS44 KHGX 291120
TAFCXO
TAF
KCXO 291120Z 2912/3012 VRB02KT P6SM MIFG SKC
     FM291400 02004KT P6SM SCT020
     FM292100 06006KT P6SM SCT045
     FM300800 00000KT 6SM BR SCT250=



000
FTUS44 KHGX 291120
TAFIAH
TAF
KIAH 291120Z 2912/3018 35003KT P6SM FEW250
     FM291500 03006KT P6SM SCT025
     FM291800 06008KT P6SM SCT045
     FM300200 VRB04KT P6SM SCT250=



000
FTUS44 KHGX 291120
TAFSGR
TAF
KSGR 291120Z 2912/3012 VRB02KT P6SM SKC
     FM291500 03007KT P6SM SCT025
     FM292100 06007KT P6SM SCT045
     FM300200 VRB03KT P6SM SCT250=



000
FTUS44 KHGX 291120
TAFGLS
TAF
KGLS 291120Z 2912/3012 03007KT P6SM SKC
     FM291800 06008KT P6SM SCT025
     FM292100 11007KT P6SM FEW025 SCT250
     FM300400 10005KT P6SM SCT015=



000
FTUS44 KHGX 290925 AAA
TAFLBX
TAF AMD
KLBX 290925Z 2909/3006 02006KT P6SM MIFG SKC
      TEMPO 2909/2912 2SM BR
     FM291500 03007KT P6SM SCT025
     FM292200 11008KT P6SM SCT045
     FM300500 00000KT 4SM BR SCT250=



000
FTUS44 KHGX 290925 AAA
TAFLBX
TAF AMD
KLBX 290925Z 2909/3006 02006KT P6SM MIFG SKC
      TEMPO 2909/2912 2SM BR
     FM291500 03007KT P6SM SCT025
     FM292200 11008KT P6SM SCT045
     FM300500 00000KT 4SM BR SCT250=



000
FTUS44 KHGX 290924 AAA
TAFHOU
TAF AMD
KHOU 290924Z 2909/3006 00000KT P6SM FEW015
     FM291500 03007KT P6SM SCT025
     FM292100 06007KT P6SM SCT045
     FM300000 11007KT P6SM BKN060
     FM300300 VRB04KT P6SM SCT250=



000
FTUS44 KHGX 290924 AAA
TAFHOU
TAF AMD
KHOU 290924Z 2909/3006 00000KT P6SM FEW015
     FM291500 03007KT P6SM SCT025
     FM292100 06007KT P6SM SCT045
     FM300000 11007KT P6SM BKN060
     FM300300 VRB04KT P6SM SCT250=



000
FTUS44 KHGX 290924 AAA
TAFIAH
TAF AMD
KIAH 290924Z 2909/3012 00000KT P6SM SCT250
     FM291500 03007KT P6SM SCT025
     FM292000 06007KT P6SM SCT045
     FM300000 09007KT P6SM BKN060
     FM300300 VRB04KT P6SM SCT250
     FM300900 00000KT P6SM SCT020=



000
FTUS44 KHGX 290924 AAA
TAFIAH
TAF AMD
KIAH 290924Z 2909/3012 00000KT P6SM SCT250
     FM291500 03007KT P6SM SCT025
     FM292000 06007KT P6SM SCT045
     FM300000 09007KT P6SM BKN060
     FM300300 VRB04KT P6SM SCT250
     FM300900 00000KT P6SM SCT020=



000
FTUS44 KHGX 290530
TAFLBX
TAF
KLBX 290530Z 2906/3006 04005KT P6SM SCT015
      TEMPO 2906/2908 4SM BR
     FM290800 00000KT 4SM BR SCT009
      TEMPO 2908/2912 2SM BR
     FM291500 03007KT P6SM SCT025
     FM292200 11008KT P6SM SCT045
     FM300500 00000KT 4SM BR SCT250=



000
FTUS44 KHGX 290530
TAFCXO
TAF
KCXO 290530Z 2906/3006 00000KT P6SM FEW070
      TEMPO 2906/2908 4SM BR
     FM290800 VRB02KT 4SM BR SCT015
      TEMPO 2910/2913 2SM BR
     FM291400 02004KT P6SM SCT020
     FM292100 05005KT P6SM SCT045
     FM300300 00000KT P6SM SCT250=



000
FTUS44 KHGX 290530
TAFUTS
TAF
KUTS 290530Z 2906/3006 00000KT P6SM SKC
     FM291500 VRB04KT P6SM FEW025
     FM292100 VRB04KT P6SM SCT040
     FM300300 00000KT P6SM SCT250=



000
FTUS44 KHGX 290530
TAFHOU
TAF
KHOU 290530Z 2906/3006 00000KT P6SM SCT025 BKN040 BKN110
     FM291500 03007KT P6SM SCT025
     FM292100 06007KT P6SM SCT045
     FM300000 11007KT P6SM BKN060
     FM300300 VRB04KT P6SM SCT250=



000
FTUS44 KHGX 290530
TAFGLS
TAF
KGLS 290530Z 2906/3006 06009KT P6SM SCT017 SCT250
     FM291000 03008KT P6SM SCT012
     FM291800 06008KT P6SM SCT025
     FM292100 11007KT P6SM FEW025 SCT250
     FM300400 10005KT P6SM SCT015=



000
FTUS44 KHGX 290530
TAFCLL
TAF
KCLL 290530Z 2906/3006 06006KT P6SM SKC
      TEMPO 2910/2913 6SM BR
     FM291500 03006KT P6SM FEW025
     FM292100 03006KT P6SM SCT040
     FM300300 05003KT P6SM SKC=



000
FTUS44 KHGX 290530
TAFSGR
TAF
KSGR 290530Z 2906/3006 08004KT P6SM SCT020 SCT100
      TEMPO 2908/2912 4SM BR
     FM291500 03007KT P6SM SCT025
     FM292100 06007KT P6SM SCT045=



000
FTUS44 KHGX 290530
TAFLBX
TAF
KLBX 290530Z 2906/3006 04005KT P6SM SCT015
      TEMPO 2906/2908 4SM BR
     FM290800 00000KT 4SM BR SCT009
      TEMPO 2908/2912 2SM BR
     FM291500 03007KT P6SM SCT025
     FM292200 11008KT P6SM SCT045
     FM300500 00000KT 4SM BR SCT250=



000
FTUS44 KHGX 290530
TAFIAH
TAF
KIAH 290530Z 2906/3012 06007KT P6SM SCT050 BKN110
     FM291500 03007KT P6SM SCT025
     FM292000 06007KT P6SM SCT045
     FM300000 09007KT P6SM BKN060
     FM300300 VRB04KT P6SM SCT250
     FM300900 00000KT P6SM SCT020=



000
FTUS44 KHGX 290530
TAFCLL
TAF
KCLL 290530Z 2906/3006 06006KT P6SM SKC
      TEMPO 2910/2913 6SM BR
     FM291500 03006KT P6SM FEW025
     FM292100 03006KT P6SM SCT040
     FM300300 05003KT P6SM SKC=



000
FTUS44 KHGX 290530
TAFGLS
TAF
KGLS 290530Z 2906/3006 06009KT P6SM SCT017 SCT250
     FM291000 03008KT P6SM SCT012
     FM291800 06008KT P6SM SCT025
     FM292100 11007KT P6SM FEW025 SCT250
     FM300400 10005KT P6SM SCT015=



000
FTUS44 KHGX 290530
TAFUTS
TAF
KUTS 290530Z 2906/3006 00000KT P6SM SKC
     FM291500 VRB04KT P6SM FEW025
     FM292100 VRB04KT P6SM SCT040
     FM300300 00000KT P6SM SCT250=



000
FTUS44 KHGX 290530
TAFIAH
TAF
KIAH 290530Z 2906/3012 06007KT P6SM SCT050 BKN110
     FM291500 03007KT P6SM SCT025
     FM292000 06007KT P6SM SCT045
     FM300000 09007KT P6SM BKN060
     FM300300 VRB04KT P6SM SCT250
     FM300900 00000KT P6SM SCT020=



000
FTUS44 KHGX 290530
TAFCXO
TAF
KCXO 290530Z 2906/3006 00000KT P6SM FEW070
      TEMPO 2906/2908 4SM BR
     FM290800 VRB02KT 4SM BR SCT015
      TEMPO 2910/2913 2SM BR
     FM291400 02004KT P6SM SCT020
     FM292100 05005KT P6SM SCT045
     FM300300 00000KT P6SM SCT250=



000
FTUS44 KHGX 290530
TAFHOU
TAF
KHOU 290530Z 2906/3006 00000KT P6SM SCT025 BKN040 BKN110
     FM291500 03007KT P6SM SCT025
     FM292100 06007KT P6SM SCT045
     FM300000 11007KT P6SM BKN060
     FM300300 VRB04KT P6SM SCT250=



000
FTUS44 KHGX 290530
TAFSGR
TAF
KSGR 290530Z 2906/3006 08004KT P6SM SCT020 SCT100
      TEMPO 2908/2912 4SM BR
     FM291500 03007KT P6SM SCT025
     FM292100 06007KT P6SM SCT045=



000
FTUS44 KHGX 290312 AAA
TAFIAH
TAF AMD
KIAH 290312Z 2903/3006 06007KT P6SM SCT050 BKN110
     FM291500 03007KT P6SM SCT025
     FM292100 06007KT P6SM SCT045
     FM300300 VRB04KT P6SM SKC=



000
FTUS44 KHGX 290250 AAA
TAFHOU
TAF AMD
KHOU 290250Z 2903/2924 00000KT P6SM FEW020 BKN100
      TEMPO 2903/2904 VRB20KT 6SM TSRA BKN020CB
     FM291500 03007KT P6SM SCT025
     FM292100 06007KT P6SM SCT045=



000
FTUS44 KHGX 290250 AAA
TAFHOU
TAF AMD
KHOU 290250Z 2903/2924 00000KT P6SM FEW020 BKN100
      TEMPO 2903/2904 VRB20KT 6SM TSRA BKN020CB
     FM291500 03007KT P6SM SCT025
     FM292100 06007KT P6SM SCT045=



000
FTUS44 KHGX 282320
TAFLBX
TAF
KLBX 282320Z 2900/2924 09010KT P6SM SCT025
     FM290200 VRB03KT P6SM FEW030
      TEMPO 2908/2912 4SM BR
     FM291500 03007KT P6SM SCT025
     FM292200 11008KT P6SM SCT045=



000
FTUS44 KHGX 282320
TAFIAH
TAF
KIAH 282320Z 2900/3006 06008KT P6SM SCT060 BKN250
      TEMPO 2900/2901 VRB15KT 6SM -TSRA BKN040CB
     FM290200 VRB03KT P6SM FEW030
     FM291500 03007KT P6SM SCT025
     FM292100 06007KT P6SM SCT045
     FM300300 VRB04KT P6SM SKC=



000
FTUS44 KHGX 282320
TAFSGR
TAF
KSGR 282320Z 2900/2924 VRB04KT P6SM VCSH SCT040 BKN250
      TEMPO 2900/2901 VRB15KT SHRA BKN040
     FM290200 VRB03KT P6SM FEW030
     FM291500 03007KT P6SM SCT025
     FM292100 06007KT P6SM SCT045=



000
FTUS44 KHGX 282320
TAFGLS
TAF
KGLS 282320Z 2900/2924 09010KT P6SM SCT020
     FM291000 03006KT P6SM SCT012
     FM291500 02008KT P6SM SCT250
     FM291800 05008KT P6SM FEW250
     FM292100 12007KT P6SM FEW250=



000
FTUS44 KHGX 282320
TAFUTS
TAF
KUTS 282320Z 2900/2924 VRB03KT P6SM FEW050 SCT100
     FM291500 VRB04KT P6SM FEW025
     FM292100 VRB04KT P6SM SCT040=



000
FTUS44 KHGX 282320
TAFGLS
TAF
KGLS 282320Z 2900/2924 09010KT P6SM SCT020
     FM291000 03006KT P6SM SCT012
     FM291500 02008KT P6SM SCT250
     FM291800 05008KT P6SM FEW250
     FM292100 12007KT P6SM FEW250=



000
FTUS44 KHGX 282320
TAFHOU
TAF
KHOU 282320Z 2900/2924 08006KT P6SM VCSH SCT040 BKN250
      TEMPO 2900/2901 VRB15KT SHRA BKN040
     FM290200 VRB03KT P6SM FEW030
     FM291500 03007KT P6SM SCT025
     FM292100 06007KT P6SM SCT045=



000
FTUS44 KHGX 282320
TAFCLL
TAF
KCLL 282320Z 2900/2924 06006KT P6SM SCT050 BKN100
     FM290200 VRB03KT P6SM FEW050
      TEMPO 2911/2913 6SM BR
     FM291500 03006KT P6SM FEW025
     FM292100 03006KT P6SM SCT040=



000
FTUS44 KHGX 282320
TAFCXO
TAF
KCXO 282320Z 2900/2924 VRB04KT P6SM SCT060
     FM290800 VRB02KT 6SM BR SCT015
     FM291400 02004KT P6SM SCT020
     FM292100 05005KT P6SM SCT045=



000
FTUS44 KHGX 282320
TAFIAH
TAF
KIAH 282320Z 2900/3006 06008KT P6SM SCT060 BKN250
      TEMPO 2900/2901 VRB15KT 6SM -TSRA BKN040CB
     FM290200 VRB03KT P6SM FEW030
     FM291500 03007KT P6SM SCT025
     FM292100 06007KT P6SM SCT045
     FM300300 VRB04KT P6SM SKC=



000
FTUS44 KHGX 282320
TAFLBX
TAF
KLBX 282320Z 2900/2924 09010KT P6SM SCT025
     FM290200 VRB03KT P6SM FEW030
      TEMPO 2908/2912 4SM BR
     FM291500 03007KT P6SM SCT025
     FM292200 11008KT P6SM SCT045=



000
FTUS44 KHGX 282320
TAFHOU
TAF
KHOU 282320Z 2900/2924 08006KT P6SM VCSH SCT040 BKN250
      TEMPO 2900/2901 VRB15KT SHRA BKN040
     FM290200 VRB03KT P6SM FEW030
     FM291500 03007KT P6SM SCT025
     FM292100 06007KT P6SM SCT045=



000
FTUS44 KHGX 282320
TAFUTS
TAF
KUTS 282320Z 2900/2924 VRB03KT P6SM FEW050 SCT100
     FM291500 VRB04KT P6SM FEW025
     FM292100 VRB04KT P6SM SCT040=



000
FTUS44 KHGX 282320
TAFCXO
TAF
KCXO 282320Z 2900/2924 VRB04KT P6SM SCT060
     FM290800 VRB02KT 6SM BR SCT015
     FM291400 02004KT P6SM SCT020
     FM292100 05005KT P6SM SCT045=



000
FTUS44 KHGX 282320
TAFCLL
TAF
KCLL 282320Z 2900/2924 06006KT P6SM SCT050 BKN100
     FM290200 VRB03KT P6SM FEW050
      TEMPO 2911/2913 6SM BR
     FM291500 03006KT P6SM FEW025
     FM292100 03006KT P6SM SCT040=



000
FTUS44 KHGX 282320
TAFSGR
TAF
KSGR 282320Z 2900/2924 VRB04KT P6SM VCSH SCT040 BKN250
      TEMPO 2900/2901 VRB15KT SHRA BKN040
     FM290200 VRB03KT P6SM FEW030
     FM291500 03007KT P6SM SCT025
     FM292100 06007KT P6SM SCT045=



000
FTUS44 KHGX 282105 AAA
TAFGLS
TAF AMD
KGLS 282105Z 2821/2918 09008KT P6SM SCT025 SCT250
     FM290200 07008KT P6SM SCT150
     FM291000 05010KT P6SM SCT012=



000
FTUS44 KHGX 282105 AAA
TAFGLS
TAF AMD
KGLS 282105Z 2821/2918 09008KT P6SM SCT025 SCT250
     FM290200 07008KT P6SM SCT150
     FM291000 05010KT P6SM SCT012=



000
FTUS44 KHGX 282103 AAA
TAFSGR
TAF AMD
KSGR 282103Z 2821/2918 05009KT P6SM VCSH BKN040 BKN050 BKN100
      TEMPO 2821/2823 VRB20KT 4SM TSRA BKN028CB
     FM290100 VRB02KT P6SM SCT150
     FM291100 02005KT P6SM SCT020=



000
FTUS44 KHGX 282103 AAA
TAFHOU
TAF AMD
KHOU 282103Z 2821/2918 08005KT P6SM VCSH SCT035 BKN050 BKN110
      TEMPO 2821/2823 VRB20KT 4SM TSRA BKN028CB
     FM290100 06004KT P6SM SCT150
     FM291100 02005KT P6SM SCT020=



000
FTUS44 KHGX 282103 AAA
TAFIAH
TAF AMD
KIAH 282103Z 2821/2924 01008KT P6SM SCT040 SCT100
     FM290200 06004KT P6SM SCT150
     FM291100 02005KT P6SM SCT020
     FM292100 14006KT P6SM SCT050=



000
FTUS44 KHGX 282103 AAA
TAFSGR
TAF AMD
KSGR 282103Z 2821/2918 05009KT P6SM VCSH BKN040 BKN050 BKN100
      TEMPO 2821/2823 VRB20KT 4SM TSRA BKN028CB
     FM290100 VRB02KT P6SM SCT150
     FM291100 02005KT P6SM SCT020=



000
FTUS44 KHGX 282103 AAA
TAFHOU
TAF AMD
KHOU 282103Z 2821/2918 08005KT P6SM VCSH SCT035 BKN050 BKN110
      TEMPO 2821/2823 VRB20KT 4SM TSRA BKN028CB
     FM290100 06004KT P6SM SCT150
     FM291100 02005KT P6SM SCT020=



000
FTUS44 KHGX 282103 AAA
TAFIAH
TAF AMD
KIAH 282103Z 2821/2924 01008KT P6SM SCT040 SCT100
     FM290200 06004KT P6SM SCT150
     FM291100 02005KT P6SM SCT020
     FM292100 14006KT P6SM SCT050=



000
FTUS44 KHGX 281729
TAFLBX
TAF
KLBX 281729Z 2818/2918 07007KT P6SM VCSH SCT010 SCT020 BKN040
      TEMPO 2818/2820 -RA BKN010
     FM290100 VRB02KT P6SM FEW050 SCT150
     FM291100 VRB03KT 5SM BR SCT015
     FM291300 05008KT P6SM SCT020=



000
FTUS44 KHGX 281729
TAFCLL
TAF
KCLL 281729Z 2818/2918 05008KT P6SM FEW100
     FM290300 VRB03KT P6SM FEW120
     FM290900 VRB02KT 6SM BR SKC
     FM291300 04005KT P6SM FEW040=



000
FTUS44 KHGX 281729
TAFUTS
TAF
KUTS 281729Z 2818/2918 VRB05KT P6SM SCT030 SCT100
     FM290900 00000KT 6SM BR SKC
     FM291300 04005KT P6SM FEW040=



000
FTUS44 KHGX 281729
TAFCXO
TAF
KCXO 281729Z 2818/2918 VRB05KT P6SM SCT030
     FM290800 VRB02KT 6SM BR SCT015
     FM291300 VRB05KT P6SM SCT020=



000
FTUS44 KHGX 281729
TAFIAH
TAF
KIAH 281729Z 2818/2924 06010KT P6SM FEW025 BKN080
     FM290200 06004KT P6SM SCT150
     FM291100 02005KT P6SM SCT020
     FM292100 14006KT P6SM SCT050=



000
FTUS44 KHGX 281729
TAFSGR
TAF
KSGR 281729Z 2818/2918 VRB06KT P6SM VCSH SCT030 OVC120
      TEMPO 2818/2820 BKN030
     FM290100 VRB02KT P6SM SCT150
     FM291100 02005KT P6SM SCT020=



000
FTUS44 KHGX 281729
TAFGLS
TAF
KGLS 281729Z 2818/2918 03011KT P6SM VCSH SCT015 BKN060
      TEMPO 2818/2820 -RA BKN015
     FM282000 04012KT P6SM SCT030 BKN120
     FM290200 05008KT P6SM SCT150
     FM291000 05010KT P6SM SCT012=



000
FTUS44 KHGX 281729
TAFHOU
TAF
KHOU 281729Z 2818/2918 12009KT P6SM VCSH SCT030 BKN100
      TEMPO 2818/2820 -RA BKN030
     FM290100 06004KT P6SM SCT150
     FM291100 02005KT P6SM SCT020=



000
FTUS44 KHGX 281729
TAFIAH
TAF
KIAH 281729Z 2818/2924 06010KT P6SM FEW025 BKN080
     FM290200 06004KT P6SM SCT150
     FM291100 02005KT P6SM SCT020
     FM292100 14006KT P6SM SCT050=



000
FTUS44 KHGX 281729
TAFCXO
TAF
KCXO 281729Z 2818/2918 VRB05KT P6SM SCT030
     FM290800 VRB02KT 6SM BR SCT015
     FM291300 VRB05KT P6SM SCT020=



000
FTUS44 KHGX 281729
TAFSGR
TAF
KSGR 281729Z 2818/2918 VRB06KT P6SM VCSH SCT030 OVC120
      TEMPO 2818/2820 BKN030
     FM290100 VRB02KT P6SM SCT150
     FM291100 02005KT P6SM SCT020=



000
FTUS44 KHGX 281729
TAFCLL
TAF
KCLL 281729Z 2818/2918 05008KT P6SM FEW100
     FM290300 VRB03KT P6SM FEW120
     FM290900 VRB02KT 6SM BR SKC
     FM291300 04005KT P6SM FEW040=



000
FTUS44 KHGX 281729
TAFLBX
TAF
KLBX 281729Z 2818/2918 07007KT P6SM VCSH SCT010 SCT020 BKN040
      TEMPO 2818/2820 -RA BKN010
     FM290100 VRB02KT P6SM FEW050 SCT150
     FM291100 VRB03KT 5SM BR SCT015
     FM291300 05008KT P6SM SCT020=



000
FTUS44 KHGX 281729
TAFHOU
TAF
KHOU 281729Z 2818/2918 12009KT P6SM VCSH SCT030 BKN100
      TEMPO 2818/2820 -RA BKN030
     FM290100 06004KT P6SM SCT150
     FM291100 02005KT P6SM SCT020=



000
FTUS44 KHGX 281729
TAFGLS
TAF
KGLS 281729Z 2818/2918 03011KT P6SM VCSH SCT015 BKN060
      TEMPO 2818/2820 -RA BKN015
     FM282000 04012KT P6SM SCT030 BKN120
     FM290200 05008KT P6SM SCT150
     FM291000 05010KT P6SM SCT012=



000
FTUS44 KHGX 281729
TAFUTS
TAF
KUTS 281729Z 2818/2918 VRB05KT P6SM SCT030 SCT100
     FM290900 00000KT 6SM BR SKC
     FM291300 04005KT P6SM FEW040=



000
FTUS44 KHGX 281501 AAA
TAFHOU
TAF AMD
KHOU 281501Z 2815/2912 04008KT P6SM FEW090 SCT250
     FM281700 07009KT P6SM FEW040 SCT150
     FM290200 VRB02KT P6SM SCT150=



000
FTUS44 KHGX 281501 AAA
TAFHOU
TAF AMD
KHOU 281501Z 2815/2912 04008KT P6SM FEW090 SCT250
     FM281700 07009KT P6SM FEW040 SCT150
     FM290200 VRB02KT P6SM SCT150=



000
FTUS44 KHGX 281501 AAA
TAFIAH
TAF AMD
KIAH 281501Z 2815/2918 06008KT P6SM BKN070 BKN120 BKN250
     FM290200 06003KT P6SM SCT150 SCT250
     FM291400 02006KT P6SM SCT250=



000
FTUS44 KHGX 281501 AAA
TAFIAH
TAF AMD
KIAH 281501Z 2815/2918 06008KT P6SM BKN070 BKN120 BKN250
     FM290200 06003KT P6SM SCT150 SCT250
     FM291400 02006KT P6SM SCT250=



000
FTUS44 KHGX 281120
TAFCLL
TAF
KCLL 281120Z 2812/2912 02004KT P6SM MIFG SCT250
     FM281400 03007KT P6SM FEW040 SCT120
     FM290300 VRB03KT P6SM FEW120
     FM290900 VRB02KT 6SM BR SKC=



000
FTUS44 KHGX 281120
TAFIAH
TAF
KIAH 281120Z 2812/2918 VRB03KT P6SM VCSH SCT070 BKN250
     FM281700 04008KT P6SM SCT040 BKN120
     FM290200 06003KT P6SM SCT250
     FM291400 02006KT P6SM SCT250=



000
FTUS44 KHGX 281120
TAFHOU
TAF
KHOU 281120Z 2812/2912 VRB03KT P6SM VCSH BKN050 OVC170
     FM281700 04008KT P6SM FEW040 SCT150
     FM290200 VRB02KT P6SM SCT150=



000
FTUS44 KHGX 281120
TAFUTS
TAF
KUTS 281120Z 2812/2912 00000KT P6SM MIFG SCT080
     FM281400 VRB02KT P6SM SCT120
     FM290900 00000KT 6SM BR SKC=



000
FTUS44 KHGX 281120
TAFCXO
TAF
KCXO 281120Z 2812/2912 02006KT P6SM MIFG FEW045 SCT080 BKN120
     FM281400 01005KT P6SM FEW040 SCT120
     FM290700 VRB02KT 6SM BR SKC=



000
FTUS44 KHGX 281120
TAFSGR
TAF
KSGR 281120Z 2812/2912 VRB02KT P6SM VCSH OVC050
     FM281600 03007KT P6SM FEW040 SCT150
     FM290200 VRB02KT P6SM SCT150=



000
FTUS44 KHGX 281120
TAFSGR
TAF
KSGR 281120Z 2812/2912 VRB02KT P6SM VCSH OVC050
     FM281600 03007KT P6SM FEW040 SCT150
     FM290200 VRB02KT P6SM SCT150=



000
FTUS44 KHGX 281120
TAFUTS
TAF
KUTS 281120Z 2812/2912 00000KT P6SM MIFG SCT080
     FM281400 VRB02KT P6SM SCT120
     FM290900 00000KT 6SM BR SKC=



000
FTUS44 KHGX 281120
TAFLBX
TAF
KLBX 281120Z 2812/2912 02008KT P6SM VCSH FEW030 SCT040 BKN045
     FM281800 03009KT P6SM SCT040 BKN120
     FM290200 VRB02KT P6SM SCT150=



000
FTUS44 KHGX 281120
TAFLBX
TAF
KLBX 281120Z 2812/2912 02008KT P6SM VCSH FEW030 SCT040 BKN045
     FM281800 03009KT P6SM SCT040 BKN120
     FM290200 VRB02KT P6SM SCT150=



000
FTUS44 KHGX 281120
TAFCXO
TAF
KCXO 281120Z 2812/2912 02006KT P6SM MIFG FEW045 SCT080 BKN120
     FM281400 01005KT P6SM FEW040 SCT120
     FM290700 VRB02KT 6SM BR SKC=



000
FTUS44 KHGX 281120
TAFGLS
TAF
KGLS 281120Z 2812/2912 02010KT P6SM -RA FEW020 BKN027 OVC050
     FM281500 03011KT P6SM VCSH BKN035 BKN150
     FM282000 04012KT P6SM SCT040 BKN120
     FM290200 05008KT P6SM SCT150=



000
FTUS44 KHGX 281120
TAFGLS
TAF
KGLS 281120Z 2812/2912 02010KT P6SM -RA FEW020 BKN027 OVC050
     FM281500 03011KT P6SM VCSH BKN035 BKN150
     FM282000 04012KT P6SM SCT040 BKN120
     FM290200 05008KT P6SM SCT150=



000
FTUS44 KHGX 281120
TAFIAH
TAF
KIAH 281120Z 2812/2918 VRB03KT P6SM VCSH SCT070 BKN250
     FM281700 04008KT P6SM SCT040 BKN120
     FM290200 06003KT P6SM SCT250
     FM291400 02006KT P6SM SCT250=



000
FTUS44 KHGX 281120
TAFHOU
TAF
KHOU 281120Z 2812/2912 VRB03KT P6SM VCSH BKN050 OVC170
     FM281700 04008KT P6SM FEW040 SCT150
     FM290200 VRB02KT P6SM SCT150=



000
FTUS44 KHGX 281120
TAFCLL
TAF
KCLL 281120Z 2812/2912 02004KT P6SM MIFG SCT250
     FM281400 03007KT P6SM FEW040 SCT120
     FM290300 VRB03KT P6SM FEW120
     FM290900 VRB02KT 6SM BR SKC=



000
FTUS44 KHGX 281043 AAA
TAFGLS
TAF AMD
KGLS 281043Z 2811/2906 02010KT P6SM VCSH SCT027 OVC050
      TEMPO 2811/2815 -RA BKN027
     FM281500 03011KT P6SM BKN150
     FM281800 04012KT P6SM SCT040 BKN120
     FM290200 05008KT P6SM SCT150=



000
FTUS44 KHGX 281043 AAA
TAFGLS
TAF AMD
KGLS 281043Z 2811/2906 02010KT P6SM VCSH SCT027 OVC050
      TEMPO 2811/2815 -RA BKN027
     FM281500 03011KT P6SM BKN150
     FM281800 04012KT P6SM SCT040 BKN120
     FM290200 05008KT P6SM SCT150=



000
FTUS44 KHGX 280900 AAA
TAFIAH
TAF AMD
KIAH 280900Z 2809/2912 01004KT P6SM FEW080 BKN100 BKN250
     FM281700 06009KT P6SM SCT035 BKN120
     FM290200 07002KT P6SM SCT150
     FM290900 03003KT P6SM SCT250=



000
FTUS44 KHGX 280900 AAA
TAFIAH
TAF AMD
KIAH 280900Z 2809/2912 01004KT P6SM FEW080 BKN100 BKN250
     FM281700 06009KT P6SM SCT035 BKN120
     FM290200 07002KT P6SM SCT150
     FM290900 03003KT P6SM SCT250=



000
FTUS44 KHGX 280900 AAA
TAFHOU
TAF AMD
KHOU 280900Z 2809/2906 08006KT P6SM VCSH FEW040 SCT060 BKN170
     FM281400 VRB03KT P6SM BKN150
     FM281700 05009KT P6SM SCT040 BKN120
     FM290200 VRB02KT P6SM SCT150=



000
FTUS44 KHGX 280900 AAA
TAFHOU
TAF AMD
KHOU 280900Z 2809/2906 08006KT P6SM VCSH FEW040 SCT060 BKN170
     FM281400 VRB03KT P6SM BKN150
     FM281700 05009KT P6SM SCT040 BKN120
     FM290200 VRB02KT P6SM SCT150=



    US Dept of Commerce
    National Oceanic and Atmospheric Administration
    National Weather Service
    1325 East West Highway
    Silver Spring, MD 20910
    Page Author: NWS Internet Services Team
Disclaimer
Information Quality
Credits
Glossary
Privacy Policy
Freedom of Information Act (FOIA)
About Us
Career Opportunities